sensor_id;sensor_type;location;lat;lon;timestamp;P1;durP1;ratioP1;P2;durP2;ratioP2
48685;SDS011;34485;51.536;3.816;2023-02-28T00:00:20;6.45;;;3.83;;
48685;SDS011;34485;51.536;3.816;2023-02-28T00:02:47;5.45;;;3.17;;
48685;SDS011;34485;51.536;3.816;2023-02-28T00:05:13;5.57;;;3.23;;
48685;SDS011;34485;51.536;3.816;2023-02-28T00:07:41;4.45;;;3.75;;
48685;SDS011;34485;51.536;3.816;2023-02-28T00:10:08;3.80;;;3.40;;
48685;SDS011;34485;51.536;3.816;2023-02-28T00:12:35;6.22;;;3.67;;
48685;SDS011;34485;51.536;3.816;2023-02-28T00:15:03;4.22;;;3.70;;
48685;SDS011;34485;51.536;3.816;2023-02-28T00:17:31;6.88;;;4.10;;
48685;SDS011;34485;51.536;3.816;2023-02-28T00:19:56;4.32;;;3.28;;
48685;SDS011;34485;51.536;3.816;2023-02-28T00:22:26;7.43;;;3.93;;
48685;SDS011;34485;51.536;3.816;2023-02-28T00:24:52;5.68;;;3.80;;
48685;SDS011;34485;51.536;3.816;2023-02-28T00:27:17;5.13;;;4.30;;
48685;SDS011;34485;51.536;3.816;2023-02-28T00:29:43;3.73;;;3.23;;
48685;SDS011;34485;51.536;3.816;2023-02-28T00:32:08;3.83;;;3.35;;
48685;SDS011;34485;51.536;3.816;2023-02-28T00:34:34;7.00;;;3.90;;
48685;SDS011;34485;51.536;3.816;2023-02-28T00:37:03;4.60;;;4.07;;
48685;SDS011;34485;51.536;3.816;2023-02-28T00:39:34;7.10;;;4.20;;
48685;SDS011;34485;51.536;3.816;2023-02-28T00:42:01;4.60;;;4.18;;
48685;SDS011;34485;51.536;3.816;2023-02-28T00:44:27;4.50;;;3.92;;
48685;SDS011;34485;51.536;3.816;2023-02-28T00:46:53;7.25;;;4.80;;
48685;SDS011;34485;51.536;3.816;2023-02-28T00:49:20;6.00;;;4.43;;
48685;SDS011;34485;51.536;3.816;2023-02-28T00:51:46;4.87;;;4.30;;
48685;SDS011;34485;51.536;3.816;2023-02-28T00:54:11;5.55;;;4.32;;
48685;SDS011;34485;51.536;3.816;2023-02-28T00:56:37;4.60;;;4.20;;
48685;SDS011;34485;51.536;3.816;2023-02-28T00:59:04;4.97;;;4.35;;
48685;SDS011;34485;51.536;3.816;2023-02-28T01:01:29;4.80;;;4.30;;
48685;SDS011;34485;51.536;3.816;2023-02-28T01:03:55;5.07;;;4.07;;
48685;SDS011;34485;51.536;3.816;2023-02-28T01:06:20;7.95;;;4.18;;
48685;SDS011;34485;51.536;3.816;2023-02-28T01:08:46;6.25;;;4.00;;
48685;SDS011;34485;51.536;3.816;2023-02-28T01:11:13;8.35;;;4.80;;
48685;SDS011;34485;51.536;3.816;2023-02-28T01:13:41;5.72;;;4.47;;
48685;SDS011;34485;51.536;3.816;2023-02-28T01:16:07;4.47;;;3.38;;
48685;SDS011;34485;51.536;3.816;2023-02-28T01:18:33;4.30;;;3.90;;
48685;SDS011;34485;51.536;3.816;2023-02-28T01:21:02;4.85;;;4.43;;
48685;SDS011;34485;51.536;3.816;2023-02-28T01:23:31;5.20;;;4.70;;
48685;SDS011;34485;51.536;3.816;2023-02-28T01:25:59;4.73;;;3.87;;
48685;SDS011;34485;51.536;3.816;2023-02-28T01:28:31;5.50;;;4.50;;
48685;SDS011;34485;51.536;3.816;2023-02-28T01:30:57;5.97;;;4.63;;
48685;SDS011;34485;51.536;3.816;2023-02-28T01:33:23;4.70;;;3.47;;
48685;SDS011;34485;51.536;3.816;2023-02-28T01:35:49;4.65;;;4.25;;
48685;SDS011;34485;51.536;3.816;2023-02-28T01:38:14;5.13;;;4.70;;
48685;SDS011;34485;51.536;3.816;2023-02-28T01:40:40;9.18;;;4.55;;
48685;SDS011;34485;51.536;3.816;2023-02-28T01:43:15;4.80;;;4.17;;
48685;SDS011;34485;51.536;3.816;2023-02-28T01:45:54;8.35;;;4.95;;
48685;SDS011;34485;51.536;3.816;2023-02-28T01:48:21;4.85;;;4.45;;
48685;SDS011;34485;51.536;3.816;2023-02-28T01:50:51;7.25;;;4.78;;
48685;SDS011;34485;51.536;3.816;2023-02-28T01:53:18;5.55;;;4.97;;
48685;SDS011;34485;51.536;3.816;2023-02-28T01:55:48;6.85;;;4.63;;
48685;SDS011;34485;51.536;3.816;2023-02-28T01:58:16;6.85;;;4.25;;
48685;SDS011;34485;51.536;3.816;2023-02-28T02:00:42;5.47;;;4.85;;
48685;SDS011;34485;51.536;3.816;2023-02-28T02:03:09;5.97;;;5.47;;
48685;SDS011;34485;51.536;3.816;2023-02-28T02:05:38;9.63;;;4.13;;
48685;SDS011;34485;51.536;3.816;2023-02-28T02:08:05;5.68;;;4.30;;
48685;SDS011;34485;51.536;3.816;2023-02-28T02:10:44;4.10;;;3.70;;
48685;SDS011;34485;51.536;3.816;2023-02-28T02:13:36;7.05;;;4.90;;
48685;SDS011;34485;51.536;3.816;2023-02-28T02:18:53;6.78;;;4.95;;
48685;SDS011;34485;51.536;3.816;2023-02-28T02:26:53;5.22;;;4.72;;
48685;SDS011;34485;51.536;3.816;2023-02-28T02:40:19;8.30;;;4.35;;
48685;SDS011;34485;51.536;3.816;2023-02-28T02:42:49;8.93;;;5.38;;
48685;SDS011;34485;51.536;3.816;2023-02-28T02:47:48;6.15;;;5.57;;
48685;SDS011;34485;51.536;3.816;2023-02-28T02:50:19;7.63;;;4.63;;
48685;SDS011;34485;51.536;3.816;2023-02-28T02:52:55;5.10;;;4.47;;
48685;SDS011;34485;51.536;3.816;2023-02-28T02:55:24;6.10;;;4.85;;
48685;SDS011;34485;51.536;3.816;2023-02-28T02:57:51;7.47;;;4.13;;
48685;SDS011;34485;51.536;3.816;2023-02-28T03:00:21;11.13;;;4.63;;
48685;SDS011;34485;51.536;3.816;2023-02-28T03:02:51;4.90;;;4.37;;
48685;SDS011;34485;51.536;3.816;2023-02-28T03:05:26;8.50;;;4.07;;
48685;SDS011;34485;51.536;3.816;2023-02-28T03:07:57;5.07;;;4.68;;
48685;SDS011;34485;51.536;3.816;2023-02-28T03:10:33;5.23;;;4.60;;
48685;SDS011;34485;51.536;3.816;2023-02-28T03:13:36;5.68;;;5.22;;
48685;SDS011;34485;51.536;3.816;2023-02-28T03:21:43;7.43;;;5.32;;
48685;SDS011;34485;51.536;3.816;2023-02-28T03:24:15;7.25;;;4.80;;
48685;SDS011;34485;51.536;3.816;2023-02-28T03:26:56;6.85;;;5.53;;
48685;SDS011;34485;51.536;3.816;2023-02-28T03:29:32;6.93;;;5.03;;
48685;SDS011;34485;51.536;3.816;2023-02-28T03:32:05;5.75;;;4.53;;
48685;SDS011;34485;51.536;3.816;2023-02-28T03:34:43;8.23;;;5.65;;
48685;SDS011;34485;51.536;3.816;2023-02-28T03:37:33;11.25;;;5.18;;
48685;SDS011;34485;51.536;3.816;2023-02-28T03:40:04;5.57;;;5.10;;
48685;SDS011;34485;51.536;3.816;2023-02-28T03:42:45;8.07;;;5.15;;
48685;SDS011;34485;51.536;3.816;2023-02-28T03:45:17;5.95;;;4.82;;
48685;SDS011;34485;51.536;3.816;2023-02-28T03:47:53;7.85;;;4.90;;
48685;SDS011;34485;51.536;3.816;2023-02-28T03:50:41;5.45;;;4.95;;
48685;SDS011;34485;51.536;3.816;2023-02-28T03:58:59;10.38;;;5.50;;
48685;SDS011;34485;51.536;3.816;2023-02-28T04:01:37;7.70;;;5.43;;
48685;SDS011;34485;51.536;3.816;2023-02-28T04:04:06;6.82;;;5.05;;
48685;SDS011;34485;51.536;3.816;2023-02-28T04:06:33;6.53;;;5.40;;
48685;SDS011;34485;51.536;3.816;2023-02-28T04:08:59;7.32;;;5.25;;
48685;SDS011;34485;51.536;3.816;2023-02-28T04:11:38;10.90;;;4.93;;
48685;SDS011;34485;51.536;3.816;2023-02-28T04:14:10;10.60;;;5.53;;
48685;SDS011;34485;51.536;3.816;2023-02-28T04:16:37;7.05;;;5.15;;
48685;SDS011;34485;51.536;3.816;2023-02-28T04:19:05;6.45;;;5.20;;
48685;SDS011;34485;51.536;3.816;2023-02-28T04:21:36;8.77;;;5.20;;
48685;SDS011;34485;51.536;3.816;2023-02-28T04:24:09;9.23;;;4.97;;
48685;SDS011;34485;51.536;3.816;2023-02-28T04:26:39;5.45;;;4.65;;
48685;SDS011;34485;51.536;3.816;2023-02-28T04:29:08;9.63;;;5.22;;
48685;SDS011;34485;51.536;3.816;2023-02-28T04:31:35;6.93;;;5.05;;
48685;SDS011;34485;51.536;3.816;2023-02-28T04:34:01;7.13;;;4.60;;
48685;SDS011;34485;51.536;3.816;2023-02-28T04:36:27;5.68;;;5.18;;
48685;SDS011;34485;51.536;3.816;2023-02-28T04:38:53;6.20;;;5.65;;
48685;SDS011;34485;51.536;3.816;2023-02-28T04:41:19;9.32;;;4.78;;
48685;SDS011;34485;51.536;3.816;2023-02-28T04:43:45;6.75;;;5.07;;
48685;SDS011;34485;51.536;3.816;2023-02-28T04:46:11;8.20;;;4.90;;
48685;SDS011;34485;51.536;3.816;2023-02-28T04:48:37;6.03;;;5.43;;
48685;SDS011;34485;51.536;3.816;2023-02-28T04:51:08;10.73;;;4.80;;
48685;SDS011;34485;51.536;3.816;2023-02-28T04:53:35;7.38;;;6.40;;
48685;SDS011;34485;51.536;3.816;2023-02-28T04:56:02;6.95;;;5.57;;
48685;SDS011;34485;51.536;3.816;2023-02-28T04:58:28;5.20;;;4.70;;
48685;SDS011;34485;51.536;3.816;2023-02-28T05:00:55;6.97;;;5.32;;
48685;SDS011;34485;51.536;3.816;2023-02-28T05:03:37;8.32;;;6.30;;
48685;SDS011;34485;51.536;3.816;2023-02-28T05:06:05;7.43;;;6.15;;
48685;SDS011;34485;51.536;3.816;2023-02-28T05:08:31;6.95;;;6.00;;
48685;SDS011;34485;51.536;3.816;2023-02-28T05:10:57;6.90;;;5.53;;
48685;SDS011;34485;51.536;3.816;2023-02-28T05:13:23;7.70;;;5.53;;
48685;SDS011;34485;51.536;3.816;2023-02-28T05:15:49;7.18;;;6.13;;
48685;SDS011;34485;51.536;3.816;2023-02-28T05:18:14;6.33;;;5.17;;
48685;SDS011;34485;51.536;3.816;2023-02-28T05:20:40;8.20;;;5.45;;
48685;SDS011;34485;51.536;3.816;2023-02-28T05:23:05;8.32;;;6.47;;
48685;SDS011;34485;51.536;3.816;2023-02-28T05:25:31;7.40;;;6.57;;
48685;SDS011;34485;51.536;3.816;2023-02-28T05:27:57;6.18;;;5.38;;
48685;SDS011;34485;51.536;3.816;2023-02-28T05:30:22;8.53;;;5.20;;
48685;SDS011;34485;51.536;3.816;2023-02-28T05:32:49;7.90;;;6.43;;
48685;SDS011;34485;51.536;3.816;2023-02-28T05:35:16;8.50;;;5.50;;
48685;SDS011;34485;51.536;3.816;2023-02-28T05:37:41;7.75;;;5.68;;
48685;SDS011;34485;51.536;3.816;2023-02-28T05:40:07;8.63;;;5.70;;
48685;SDS011;34485;51.536;3.816;2023-02-28T05:42:36;12.25;;;6.55;;
48685;SDS011;34485;51.536;3.816;2023-02-28T05:45:03;7.65;;;6.25;;
48685;SDS011;34485;51.536;3.816;2023-02-28T05:47:29;12.82;;;7.32;;
48685;SDS011;34485;51.536;3.816;2023-02-28T05:49:55;8.93;;;6.53;;
48685;SDS011;34485;51.536;3.816;2023-02-28T05:52:20;7.80;;;6.03;;
48685;SDS011;34485;51.536;3.816;2023-02-28T05:54:46;9.30;;;7.23;;
48685;SDS011;34485;51.536;3.816;2023-02-28T05:57:12;11.52;;;6.90;;
48685;SDS011;34485;51.536;3.816;2023-02-28T05:59:37;9.77;;;6.53;;
48685;SDS011;34485;51.536;3.816;2023-02-28T06:02:05;9.00;;;6.70;;
48685;SDS011;34485;51.536;3.816;2023-02-28T06:04:40;9.18;;;7.10;;
48685;SDS011;34485;51.536;3.816;2023-02-28T06:07:06;7.07;;;6.38;;
48685;SDS011;34485;51.536;3.816;2023-02-28T06:09:32;9.40;;;6.22;;
48685;SDS011;34485;51.536;3.816;2023-02-28T06:11:59;9.80;;;6.77;;
48685;SDS011;34485;51.536;3.816;2023-02-28T06:14:27;8.65;;;7.75;;
48685;SDS011;34485;51.536;3.816;2023-02-28T06:16:53;13.70;;;7.03;;
48685;SDS011;34485;51.536;3.816;2023-02-28T06:19:18;7.57;;;6.53;;
48685;SDS011;34485;51.536;3.816;2023-02-28T06:21:44;10.23;;;7.27;;
48685;SDS011;34485;51.536;3.816;2023-02-28T06:24:10;10.60;;;7.80;;
48685;SDS011;34485;51.536;3.816;2023-02-28T06:26:35;11.10;;;7.43;;
48685;SDS011;34485;51.536;3.816;2023-02-28T06:29:01;8.85;;;7.28;;
48685;SDS011;34485;51.536;3.816;2023-02-28T06:31:28;7.90;;;6.87;;
48685;SDS011;34485;51.536;3.816;2023-02-28T06:33:54;7.72;;;6.95;;
48685;SDS011;34485;51.536;3.816;2023-02-28T06:36:20;7.97;;;7.15;;
48685;SDS011;34485;51.536;3.816;2023-02-28T06:38:46;12.07;;;8.20;;
48685;SDS011;34485;51.536;3.816;2023-02-28T06:41:16;11.07;;;8.18;;
48685;SDS011;34485;51.536;3.816;2023-02-28T06:43:42;8.45;;;6.47;;
48685;SDS011;34485;51.536;3.816;2023-02-28T06:46:10;7.70;;;4.90;;
48685;SDS011;34485;51.536;3.816;2023-02-28T06:48:38;5.83;;;5.33;;
48685;SDS011;34485;51.536;3.816;2023-02-28T06:51:08;6.70;;;5.35;;
48685;SDS011;34485;51.536;3.816;2023-02-28T06:53:36;6.10;;;5.57;;
48685;SDS011;34485;51.536;3.816;2023-02-28T06:56:05;8.05;;;5.53;;
48685;SDS011;34485;51.536;3.816;2023-02-28T06:58:32;5.10;;;4.60;;
48685;SDS011;34485;51.536;3.816;2023-02-28T07:00:59;6.97;;;5.25;;
48685;SDS011;34485;51.536;3.816;2023-02-28T07:03:24;6.85;;;5.25;;
48685;SDS011;34485;51.536;3.816;2023-02-28T07:05:50;6.77;;;5.93;;
48685;SDS011;34485;51.536;3.816;2023-02-28T07:08:16;5.17;;;4.67;;
48685;SDS011;34485;51.536;3.816;2023-02-28T07:10:41;8.38;;;4.93;;
48685;SDS011;34485;51.536;3.816;2023-02-28T07:13:08;5.90;;;4.65;;
48685;SDS011;34485;51.536;3.816;2023-02-28T07:15:34;9.90;;;5.28;;
48685;SDS011;34485;51.536;3.816;2023-02-28T07:18:00;7.15;;;6.20;;
48685;SDS011;34485;51.536;3.816;2023-02-28T07:20:26;8.13;;;5.13;;
48685;SDS011;34485;51.536;3.816;2023-02-28T07:22:52;6.45;;;4.90;;
48685;SDS011;34485;51.536;3.816;2023-02-28T07:25:27;7.00;;;4.28;;
48685;SDS011;34485;51.536;3.816;2023-02-28T07:27:54;6.35;;;5.00;;
48685;SDS011;34485;51.536;3.816;2023-02-28T07:30:21;8.17;;;5.13;;
48685;SDS011;34485;51.536;3.816;2023-02-28T07:32:47;6.15;;;4.35;;
48685;SDS011;34485;51.536;3.816;2023-02-28T07:35:13;4.68;;;4.38;;
48685;SDS011;34485;51.536;3.816;2023-02-28T07:37:40;7.07;;;4.43;;
48685;SDS011;34485;51.536;3.816;2023-02-28T07:40:10;5.77;;;4.50;;
48685;SDS011;34485;51.536;3.816;2023-02-28T07:42:36;4.88;;;4.47;;
48685;SDS011;34485;51.536;3.816;2023-02-28T07:45:03;5.03;;;4.70;;
48685;SDS011;34485;51.536;3.816;2023-02-28T07:47:30;6.63;;;3.95;;
48685;SDS011;34485;51.536;3.816;2023-02-28T07:49:56;5.47;;;4.20;;
48685;SDS011;34485;51.536;3.816;2023-02-28T07:52:22;5.07;;;4.37;;
48685;SDS011;34485;51.536;3.816;2023-02-28T07:54:49;5.10;;;4.70;;
48685;SDS011;34485;51.536;3.816;2023-02-28T07:57:15;10.13;;;4.95;;
48685;SDS011;34485;51.536;3.816;2023-02-28T07:59:41;5.32;;;4.82;;
48685;SDS011;34485;51.536;3.816;2023-02-28T08:02:10;5.17;;;4.27;;
48685;SDS011;34485;51.536;3.816;2023-02-28T08:04:38;7.53;;;5.28;;
48685;SDS011;34485;51.536;3.816;2023-02-28T08:07:04;5.63;;;4.87;;
48685;SDS011;34485;51.536;3.816;2023-02-28T08:09:29;4.18;;;3.60;;
48685;SDS011;34485;51.536;3.816;2023-02-28T08:11:55;5.97;;;5.03;;
48685;SDS011;34485;51.536;3.816;2023-02-28T08:14:20;7.05;;;4.72;;
48685;SDS011;34485;51.536;3.816;2023-02-28T08:16:46;9.95;;;6.20;;
48685;SDS011;34485;51.536;3.816;2023-02-28T08:19:12;6.28;;;5.43;;
48685;SDS011;34485;51.536;3.816;2023-02-28T08:21:40;5.75;;;4.97;;
48685;SDS011;34485;51.536;3.816;2023-02-28T08:24:06;7.35;;;5.65;;
48685;SDS011;34485;51.536;3.816;2023-02-28T08:26:32;9.00;;;6.07;;
48685;SDS011;34485;51.536;3.816;2023-02-28T08:28:57;7.22;;;6.18;;
48685;SDS011;34485;51.536;3.816;2023-02-28T08:31:23;9.27;;;5.33;;
48685;SDS011;34485;51.536;3.816;2023-02-28T08:33:49;7.83;;;5.90;;
48685;SDS011;34485;51.536;3.816;2023-02-28T08:36:17;7.78;;;5.38;;
48685;SDS011;34485;51.536;3.816;2023-02-28T08:38:43;8.23;;;5.07;;
48685;SDS011;34485;51.536;3.816;2023-02-28T08:41:09;7.28;;;5.90;;
48685;SDS011;34485;51.536;3.816;2023-02-28T08:43:36;8.33;;;6.13;;
48685;SDS011;34485;51.536;3.816;2023-02-28T08:46:03;7.25;;;4.60;;
48685;SDS011;34485;51.536;3.816;2023-02-28T08:48:29;6.53;;;5.45;;
48685;SDS011;34485;51.536;3.816;2023-02-28T08:53:21;7.70;;;4.23;;
48685;SDS011;34485;51.536;3.816;2023-02-28T08:55:47;15.85;;;5.45;;
48685;SDS011;34485;51.536;3.816;2023-02-28T08:58:41;5.15;;;4.65;;
48685;SDS011;34485;51.536;3.816;2023-02-28T09:01:11;5.85;;;5.00;;
48685;SDS011;34485;51.536;3.816;2023-02-28T09:03:38;6.07;;;5.50;;
48685;SDS011;34485;51.536;3.816;2023-02-28T09:06:06;10.70;;;5.35;;
48685;SDS011;34485;51.536;3.816;2023-02-28T09:08:32;6.07;;;5.47;;
48685;SDS011;34485;51.536;3.816;2023-02-28T09:10:58;5.55;;;4.38;;
48685;SDS011;34485;51.536;3.816;2023-02-28T09:13:24;7.47;;;5.45;;
48685;SDS011;34485;51.536;3.816;2023-02-28T09:15:51;7.10;;;3.70;;
48685;SDS011;34485;51.536;3.816;2023-02-28T09:18:17;5.28;;;4.75;;
48685;SDS011;34485;51.536;3.816;2023-02-28T09:20:43;5.93;;;4.27;;
48685;SDS011;34485;51.536;3.816;2023-02-28T09:23:09;5.70;;;4.47;;
48685;SDS011;34485;51.536;3.816;2023-02-28T09:25:37;4.63;;;4.22;;
48685;SDS011;34485;51.536;3.816;2023-02-28T09:28:09;4.05;;;3.75;;
48685;SDS011;34485;51.536;3.816;2023-02-28T09:30:36;4.85;;;4.38;;
48685;SDS011;34485;51.536;3.816;2023-02-28T09:33:02;4.88;;;3.70;;
48685;SDS011;34485;51.536;3.816;2023-02-28T09:35:28;3.70;;;3.40;;
48685;SDS011;34485;51.536;3.816;2023-02-28T09:37:55;3.75;;;3.45;;
48685;SDS011;34485;51.536;3.816;2023-02-28T09:40:22;4.22;;;3.78;;
48685;SDS011;34485;51.536;3.816;2023-02-28T09:42:50;3.97;;;3.22;;
48685;SDS011;34485;51.536;3.816;2023-02-28T09:45:27;2.90;;;2.80;;
48685;SDS011;34485;51.536;3.816;2023-02-28T09:48:01;3.22;;;3.03;;
48685;SDS011;34485;51.536;3.816;2023-02-28T09:50:45;2.83;;;2.70;;
48685;SDS011;34485;51.536;3.816;2023-02-28T09:56:04;4.47;;;2.60;;
48685;SDS011;34485;51.536;3.816;2023-02-28T09:58:44;3.35;;;3.15;;
48685;SDS011;34485;51.536;3.816;2023-02-28T10:10:42;3.15;;;2.85;;
48685;SDS011;34485;51.536;3.816;2023-02-28T10:13:05;3.80;;;2.47;;
48685;SDS011;34485;51.536;3.816;2023-02-28T10:15:53;6.30;;;4.23;;
48685;SDS011;34485;51.536;3.816;2023-02-28T10:21:18;3.20;;;3.00;;
48685;SDS011;34485;51.536;3.816;2023-02-28T10:24:13;2.75;;;2.55;;
48685;SDS011;34485;51.536;3.816;2023-02-28T10:27:21;3.78;;;3.47;;
48685;SDS011;34485;51.536;3.816;2023-02-28T10:29:54;3.10;;;2.90;;
48685;SDS011;34485;51.536;3.816;2023-02-28T10:32:29;3.38;;;3.08;;
48685;SDS011;34485;51.536;3.816;2023-02-28T10:35:00;3.30;;;3.00;;
48685;SDS011;34485;51.536;3.816;2023-02-28T10:37:56;4.00;;;3.70;;
48685;SDS011;34485;51.536;3.816;2023-02-28T10:45:20;3.55;;;3.08;;
48685;SDS011;34485;51.536;3.816;2023-02-28T10:47:57;4.03;;;3.73;;
48685;SDS011;34485;51.536;3.816;2023-02-28T10:50:36;5.65;;;3.65;;
48685;SDS011;34485;51.536;3.816;2023-02-28T11:01:10;4.73;;;3.70;;
48685;SDS011;34485;51.536;3.816;2023-02-28T11:03:42;3.35;;;3.15;;
48685;SDS011;34485;51.536;3.816;2023-02-28T11:06:13;3.63;;;3.33;;
48685;SDS011;34485;51.536;3.816;2023-02-28T11:08:49;6.00;;;3.22;;
48685;SDS011;34485;51.536;3.816;2023-02-28T11:11:25;4.55;;;3.58;;
48685;SDS011;34485;51.536;3.816;2023-02-28T11:13:53;5.75;;;3.85;;
48685;SDS011;34485;51.536;3.816;2023-02-28T11:16:36;4.20;;;3.80;;
48685;SDS011;34485;51.536;3.816;2023-02-28T11:19:04;4.57;;;3.70;;
48685;SDS011;34485;51.536;3.816;2023-02-28T11:21:39;3.78;;;3.30;;
48685;SDS011;34485;51.536;3.816;2023-02-28T11:24:24;4.50;;;3.67;;
48685;SDS011;34485;51.536;3.816;2023-02-28T11:26:50;4.00;;;3.70;;
48685;SDS011;34485;51.536;3.816;2023-02-28T11:29:34;3.55;;;3.30;;
48685;SDS011;34485;51.536;3.816;2023-02-28T11:32:12;5.15;;;3.80;;
48685;SDS011;34485;51.536;3.816;2023-02-28T11:34:39;3.90;;;3.60;;
48685;SDS011;34485;51.536;3.816;2023-02-28T11:37:09;4.10;;;2.93;;
48685;SDS011;34485;51.536;3.816;2023-02-28T11:39:37;2.70;;;2.47;;
48685;SDS011;34485;51.536;3.816;2023-02-28T11:47:10;4.47;;;2.90;;
48685;SDS011;34485;51.536;3.816;2023-02-28T11:50:03;3.15;;;2.95;;
48685;SDS011;34485;51.536;3.816;2023-02-28T11:52:34;5.20;;;3.08;;
48685;SDS011;34485;51.536;3.816;2023-02-28T12:00:39;4.85;;;3.75;;
48685;SDS011;34485;51.536;3.816;2023-02-28T12:09:02;4.38;;;3.40;;
48685;SDS011;34485;51.536;3.816;2023-02-28T12:11:40;3.40;;;3.20;;
48685;SDS011;34485;51.536;3.816;2023-02-28T12:19:26;3.40;;;3.20;;
48685;SDS011;34485;51.536;3.816;2023-02-28T12:24:55;3.42;;;2.70;;
48685;SDS011;34485;51.536;3.816;2023-02-28T12:27:31;4.25;;;3.58;;
48685;SDS011;34485;51.536;3.816;2023-02-28T12:30:08;4.22;;;3.53;;
48685;SDS011;34485;51.536;3.816;2023-02-28T12:32:41;3.50;;;3.20;;
48685;SDS011;34485;51.536;3.816;2023-02-28T12:35:14;3.20;;;3.00;;
48685;SDS011;34485;51.536;3.816;2023-02-28T12:37:45;3.05;;;2.85;;
48685;SDS011;34485;51.536;3.816;2023-02-28T12:40:26;3.05;;;2.85;;
48685;SDS011;34485;51.536;3.816;2023-02-28T12:43:19;2.90;;;2.70;;
48685;SDS011;34485;51.536;3.816;2023-02-28T12:45:52;3.55;;;3.17;;
48685;SDS011;34485;51.536;3.816;2023-02-28T12:48:25;3.53;;;3.27;;
48685;SDS011;34485;51.536;3.816;2023-02-28T12:50:56;2.72;;;2.53;;
48685;SDS011;34485;51.536;3.816;2023-02-28T12:53:25;5.65;;;3.45;;
48685;SDS011;34485;51.536;3.816;2023-02-28T12:56:21;3.38;;;3.08;;
48685;SDS011;34485;51.536;3.816;2023-02-28T12:59:01;4.18;;;3.78;;
48685;SDS011;34485;51.536;3.816;2023-02-28T13:02:01;3.90;;;3.33;;
48685;SDS011;34485;51.536;3.816;2023-02-28T13:07:50;3.92;;;3.72;;
48685;SDS011;34485;51.536;3.816;2023-02-28T13:10:17;3.17;;;2.97;;
48685;SDS011;34485;51.536;3.816;2023-02-28T13:12:50;3.10;;;2.90;;
48685;SDS011;34485;51.536;3.816;2023-02-28T13:15:22;2.73;;;2.53;;
48685;SDS011;34485;51.536;3.816;2023-02-28T13:17:51;2.70;;;2.42;;
48685;SDS011;34485;51.536;3.816;2023-02-28T13:22:49;2.70;;;2.50;;
48685;SDS011;34485;51.536;3.816;2023-02-28T13:27:59;3.93;;;2.70;;
48685;SDS011;34485;51.536;3.816;2023-02-28T13:33:33;3.47;;;3.28;;
48685;SDS011;34485;51.536;3.816;2023-02-28T13:38:54;3.20;;;3.00;;
48685;SDS011;34485;51.536;3.816;2023-02-28T13:44:01;2.75;;;2.55;;
48685;SDS011;34485;51.536;3.816;2023-02-28T13:46:29;3.28;;;3.08;;
48685;SDS011;34485;51.536;3.816;2023-02-28T13:48:55;2.47;;;2.28;;
48685;SDS011;34485;51.536;3.816;2023-02-28T13:51:40;4.57;;;3.73;;
48685;SDS011;34485;51.536;3.816;2023-02-28T13:59:59;3.58;;;3.38;;
48685;SDS011;34485;51.536;3.816;2023-02-28T14:02:34;3.03;;;2.72;;
48685;SDS011;34485;51.536;3.816;2023-02-28T14:05:17;3.13;;;2.83;;
48685;SDS011;34485;51.536;3.816;2023-02-28T14:07:50;3.13;;;2.92;;
48685;SDS011;34485;51.536;3.816;2023-02-28T14:10:33;3.00;;;2.80;;
48685;SDS011;34485;51.536;3.816;2023-02-28T14:13:13;3.15;;;2.95;;
48685;SDS011;34485;51.536;3.816;2023-02-28T14:16:00;3.85;;;3.10;;
48685;SDS011;34485;51.536;3.816;2023-02-28T14:34:48;3.35;;;3.15;;
48685;SDS011;34485;51.536;3.816;2023-02-28T14:37:45;3.63;;;3.35;;
48685;SDS011;34485;51.536;3.816;2023-02-28T14:40:32;3.55;;;3.08;;
48685;SDS011;34485;51.536;3.816;2023-02-28T14:43:00;3.25;;;3.05;;
48685;SDS011;34485;51.536;3.816;2023-02-28T14:45:32;2.97;;;2.77;;
48685;SDS011;34485;51.536;3.816;2023-02-28T14:47:59;2.90;;;2.70;;
48685;SDS011;34485;51.536;3.816;2023-02-28T14:50:31;4.35;;;2.78;;
48685;SDS011;34485;51.536;3.816;2023-02-28T14:52:59;2.42;;;2.28;;
48685;SDS011;34485;51.536;3.816;2023-02-28T14:55:35;2.90;;;2.70;;
48685;SDS011;34485;51.536;3.816;2023-02-28T14:58:03;3.15;;;2.67;;
48685;SDS011;34485;51.536;3.816;2023-02-28T15:00:35;2.70;;;2.50;;
48685;SDS011;34485;51.536;3.816;2023-02-28T15:06:05;4.05;;;3.58;;
48685;SDS011;34485;51.536;3.816;2023-02-28T15:08:37;3.23;;;2.63;;
48685;SDS011;34485;51.536;3.816;2023-02-28T15:11:18;3.25;;;2.95;;
48685;SDS011;34485;51.536;3.816;2023-02-28T15:13:48;2.72;;;2.53;;
48685;SDS011;34485;51.536;3.816;2023-02-28T15:16:22;3.83;;;3.53;;
48685;SDS011;34485;51.536;3.816;2023-02-28T15:19:14;2.93;;;2.73;;
48685;SDS011;34485;51.536;3.816;2023-02-28T15:21:48;4.43;;;3.25;;
48685;SDS011;34485;51.536;3.816;2023-02-28T15:24:29;3.67;;;3.47;;
48685;SDS011;34485;51.536;3.816;2023-02-28T15:27:25;3.10;;;2.80;;
48685;SDS011;34485;51.536;3.816;2023-02-28T15:29:54;2.70;;;2.50;;
48685;SDS011;34485;51.536;3.816;2023-02-28T15:32:29;3.70;;;3.50;;
48685;SDS011;34485;51.536;3.816;2023-02-28T15:34:57;3.22;;;3.03;;
48685;SDS011;34485;51.536;3.816;2023-02-28T15:40:49;3.25;;;3.05;;
48685;SDS011;34485;51.536;3.816;2023-02-28T15:43:05;2.80;;;2.60;;
48685;SDS011;34485;51.536;3.816;2023-02-28T15:45:51;3.75;;;3.38;;
48685;SDS011;34485;51.536;3.816;2023-02-28T15:48:31;3.42;;;3.22;;
48685;SDS011;34485;51.536;3.816;2023-02-28T15:51:01;3.20;;;3.00;;
48685;SDS011;34485;51.536;3.816;2023-02-28T15:56:20;5.38;;;3.05;;
48685;SDS011;34485;51.536;3.816;2023-02-28T15:58:55;3.42;;;2.85;;
48685;SDS011;34485;51.536;3.816;2023-02-28T16:01:24;4.35;;;3.13;;
48685;SDS011;34485;51.536;3.816;2023-02-28T16:03:53;3.30;;;3.08;;
48685;SDS011;34485;51.536;3.816;2023-02-28T16:06:33;3.30;;;3.10;;
48685;SDS011;34485;51.536;3.816;2023-02-28T16:09:02;5.63;;;3.10;;
48685;SDS011;34485;51.536;3.816;2023-02-28T16:11:29;3.85;;;3.65;;
48685;SDS011;34485;51.536;3.816;2023-02-28T16:13:57;5.75;;;2.90;;
48685;SDS011;34485;51.536;3.816;2023-02-28T16:16:23;3.15;;;2.90;;
48685;SDS011;34485;51.536;3.816;2023-02-28T16:18:50;2.92;;;2.75;;
48685;SDS011;34485;51.536;3.816;2023-02-28T16:21:16;3.97;;;3.67;;
48685;SDS011;34485;51.536;3.816;2023-02-28T16:23:42;3.67;;;3.40;;
48685;SDS011;34485;51.536;3.816;2023-02-28T16:26:07;3.37;;;3.13;;
48685;SDS011;34485;51.536;3.816;2023-02-28T16:28:40;4.25;;;3.72;;
48685;SDS011;34485;51.536;3.816;2023-02-28T16:31:06;3.57;;;3.37;;
48685;SDS011;34485;51.536;3.816;2023-02-28T16:33:32;4.20;;;3.95;;
48685;SDS011;34485;51.536;3.816;2023-02-28T16:35:59;3.08;;;2.78;;
48685;SDS011;34485;51.536;3.816;2023-02-28T16:38:25;3.92;;;3.63;;
48685;SDS011;34485;51.536;3.816;2023-02-28T16:40:59;2.87;;;2.67;;
48685;SDS011;34485;51.536;3.816;2023-02-28T16:43:25;4.90;;;3.75;;
48685;SDS011;34485;51.536;3.816;2023-02-28T16:45:55;5.15;;;3.50;;
48685;SDS011;34485;51.536;3.816;2023-02-28T16:48:26;3.50;;;3.20;;
48685;SDS011;34485;51.536;3.816;2023-02-28T16:50:52;3.47;;;3.27;;
48685;SDS011;34485;51.536;3.816;2023-02-28T16:53:17;3.60;;;3.30;;
48685;SDS011;34485;51.536;3.816;2023-02-28T16:55:43;3.67;;;3.37;;
48685;SDS011;34485;51.536;3.816;2023-02-28T16:58:11;4.15;;;3.75;;
48685;SDS011;34485;51.536;3.816;2023-02-28T17:00:40;3.47;;;3.17;;
48685;SDS011;34485;51.536;3.816;2023-02-28T17:03:09;5.93;;;3.13;;
48685;SDS011;34485;51.536;3.816;2023-02-28T17:05:50;3.38;;;3.10;;
48685;SDS011;34485;51.536;3.816;2023-02-28T17:08:15;4.25;;;3.95;;
48685;SDS011;34485;51.536;3.816;2023-02-28T17:10:41;6.63;;;3.70;;
48685;SDS011;34485;51.536;3.816;2023-02-28T17:13:07;6.00;;;3.20;;
48685;SDS011;34485;51.536;3.816;2023-02-28T17:15:33;3.60;;;3.38;;
48685;SDS011;34485;51.536;3.816;2023-02-28T17:17:59;3.47;;;3.17;;
48685;SDS011;34485;51.536;3.816;2023-02-28T17:20:25;4.10;;;3.80;;
48685;SDS011;34485;51.536;3.816;2023-02-28T17:22:51;3.45;;;3.15;;